sensor_id;sensor_type;location;lat;lon;timestamp;P1;durP1;ratioP1;P2;durP2;ratioP2
75171;SDS011;63750;52.418;20.742;2023-07-31T00:02:33;4.70;;;4.30;;
75171;SDS011;63750;52.418;20.742;2023-07-31T00:05:22;4.20;;;3.80;;
75171;SDS011;63750;52.418;20.742;2023-07-31T00:08:11;4.40;;;4.00;;
75171;SDS011;63750;52.418;20.742;2023-07-31T00:10:59;4.40;;;4.00;;
75171;SDS011;63750;52.418;20.742;2023-07-31T00:13:48;4.00;;;3.60;;
75171;SDS011;63750;52.418;20.742;2023-07-31T00:16:37;4.00;;;3.70;;
75171;SDS011;63750;52.418;20.742;2023-07-31T00:19:26;4.50;;;4.00;;
75171;SDS011;63750;52.418;20.742;2023-07-31T00:22:15;4.00;;;3.60;;
75171;SDS011;63750;52.418;20.742;2023-07-31T00:25:04;4.30;;;3.90;;
75171;SDS011;63750;52.418;20.742;2023-07-31T00:27:53;4.60;;;3.90;;
75171;SDS011;63750;52.418;20.742;2023-07-31T00:30:42;4.90;;;3.80;;
75171;SDS011;63750;52.418;20.742;2023-07-31T00:33:31;4.20;;;3.80;;
75171;SDS011;63750;52.418;20.742;2023-07-31T00:36:21;4.70;;;3.70;;
75171;SDS011;63750;52.418;20.742;2023-07-31T00:39:10;4.70;;;4.00;;
75171;SDS011;63750;52.418;20.742;2023-07-31T00:41:59;4.30;;;3.80;;
75171;SDS011;63750;52.418;20.742;2023-07-31T00:44:48;4.40;;;4.00;;
75171;SDS011;63750;52.418;20.742;2023-07-31T00:47:37;4.10;;;3.70;;
75171;SDS011;63750;52.418;20.742;2023-07-31T00:50:26;5.00;;;4.50;;
75171;SDS011;63750;52.418;20.742;2023-07-31T00:53:16;4.50;;;4.10;;
75171;SDS011;63750;52.418;20.742;2023-07-31T00:56:05;4.40;;;4.00;;
75171;SDS011;63750;52.418;20.742;2023-07-31T00:58:54;4.10;;;3.70;;
75171;SDS011;63750;52.418;20.742;2023-07-31T01:01:43;4.40;;;4.00;;
75171;SDS011;63750;52.418;20.742;2023-07-31T01:04:32;4.50;;;4.00;;
75171;SDS011;63750;52.418;20.742;2023-07-31T01:07:22;4.50;;;4.10;;
75171;SDS011;63750;52.418;20.742;2023-07-31T01:10:19;4.20;;;3.60;;
75171;SDS011;63750;52.418;20.742;2023-07-31T01:13:10;4.00;;;3.70;;
75171;SDS011;63750;52.418;20.742;2023-07-31T01:16:00;4.00;;;3.70;;
75171;SDS011;63750;52.418;20.742;2023-07-31T01:18:48;4.80;;;4.30;;
75171;SDS011;63750;52.418;20.742;2023-07-31T01:21:45;4.40;;;4.00;;
75171;SDS011;63750;52.418;20.742;2023-07-31T01:24:54;4.70;;;4.30;;
75171;SDS011;63750;52.418;20.742;2023-07-31T01:27:49;4.50;;;4.10;;
75171;SDS011;63750;52.418;20.742;2023-07-31T01:30:44;4.40;;;4.00;;
75171;SDS011;63750;52.418;20.742;2023-07-31T01:33:35;4.80;;;4.20;;
75171;SDS011;63750;52.418;20.742;2023-07-31T01:36:25;3.90;;;3.60;;
75171;SDS011;63750;52.418;20.742;2023-07-31T01:39:15;4.40;;;4.00;;
75171;SDS011;63750;52.418;20.742;2023-07-31T01:42:04;4.80;;;4.10;;
75171;SDS011;63750;52.418;20.742;2023-07-31T01:44:53;4.50;;;4.10;;
75171;SDS011;63750;52.418;20.742;2023-07-31T01:47:42;5.10;;;4.60;;
75171;SDS011;63750;52.418;20.742;2023-07-31T01:50:31;4.80;;;4.40;;
75171;SDS011;63750;52.418;20.742;2023-07-31T01:53:20;4.70;;;4.30;;
75171;SDS011;63750;52.418;20.742;2023-07-31T01:56:09;4.90;;;4.40;;
75171;SDS011;63750;52.418;20.742;2023-07-31T01:58:58;4.50;;;4.10;;
75171;SDS011;63750;52.418;20.742;2023-07-31T02:01:47;5.10;;;4.10;;
75171;SDS011;63750;52.418;20.742;2023-07-31T02:04:36;4.60;;;4.20;;
75171;SDS011;63750;52.418;20.742;2023-07-31T02:07:25;4.70;;;4.30;;
75171;SDS011;63750;52.418;20.742;2023-07-31T02:10:14;4.50;;;4.10;;
75171;SDS011;63750;52.418;20.742;2023-07-31T02:13:02;4.40;;;4.00;;
75171;SDS011;63750;52.418;20.742;2023-07-31T02:15:51;4.90;;;4.10;;
75171;SDS011;63750;52.418;20.742;2023-07-31T02:18:40;5.20;;;4.70;;
75171;SDS011;63750;52.418;20.742;2023-07-31T02:21:29;5.40;;;4.90;;
75171;SDS011;63750;52.418;20.742;2023-07-31T02:24:18;5.00;;;4.50;;
75171;SDS011;63750;52.418;20.742;2023-07-31T02:27:07;4.00;;;3.70;;
75171;SDS011;63750;52.418;20.742;2023-07-31T02:29:56;5.10;;;4.50;;
75171;SDS011;63750;52.418;20.742;2023-07-31T02:32:45;4.70;;;4.30;;
75171;SDS011;63750;52.418;20.742;2023-07-31T02:35:33;5.00;;;4.50;;
75171;SDS011;63750;52.418;20.742;2023-07-31T02:38:22;4.70;;;4.30;;
75171;SDS011;63750;52.418;20.742;2023-07-31T02:41:11;4.40;;;4.00;;
75171;SDS011;63750;52.418;20.742;2023-07-31T02:44:00;5.30;;;4.80;;
75171;SDS011;63750;52.418;20.742;2023-07-31T02:46:49;5.60;;;5.10;;
75171;SDS011;63750;52.418;20.742;2023-07-31T02:49:38;4.40;;;3.30;;
75171;SDS011;63750;52.418;20.742;2023-07-31T02:52:26;5.10;;;4.60;;
75171;SDS011;63750;52.418;20.742;2023-07-31T02:55:16;5.10;;;4.60;;
75171;SDS011;63750;52.418;20.742;2023-07-31T02:58:04;4.90;;;4.40;;
75171;SDS011;63750;52.418;20.742;2023-07-31T03:00:53;5.10;;;4.60;;
75171;SDS011;63750;52.418;20.742;2023-07-31T03:03:42;5.00;;;4.60;;
75171;SDS011;63750;52.418;20.742;2023-07-31T03:06:31;4.80;;;4.10;;
75171;SDS011;63750;52.418;20.742;2023-07-31T03:09:20;5.70;;;4.60;;
75171;SDS011;63750;52.418;20.742;2023-07-31T03:12:09;6.10;;;4.80;;
75171;SDS011;63750;52.418;20.742;2023-07-31T03:14:58;5.30;;;4.80;;
75171;SDS011;63750;52.418;20.742;2023-07-31T03:17:47;4.30;;;3.90;;
75171;SDS011;63750;52.418;20.742;2023-07-31T03:20:35;4.50;;;4.10;;
75171;SDS011;63750;52.418;20.742;2023-07-31T03:23:24;4.50;;;4.10;;
75171;SDS011;63750;52.418;20.742;2023-07-31T03:26:13;5.50;;;4.80;;
75171;SDS011;63750;52.418;20.742;2023-07-31T03:29:02;5.30;;;4.60;;
75171;SDS011;63750;52.418;20.742;2023-07-31T03:31:51;5.10;;;4.60;;
75171;SDS011;63750;52.418;20.742;2023-07-31T03:34:39;5.10;;;4.60;;
75171;SDS011;63750;52.418;20.742;2023-07-31T03:37:28;5.60;;;5.00;;
75171;SDS011;63750;52.418;20.742;2023-07-31T03:40:17;4.90;;;4.40;;
75171;SDS011;63750;52.418;20.742;2023-07-31T03:43:06;6.10;;;4.40;;
75171;SDS011;63750;52.418;20.742;2023-07-31T03:45:55;5.40;;;4.90;;
75171;SDS011;63750;52.418;20.742;2023-07-31T03:48:44;5.30;;;4.80;;
75171;SDS011;63750;52.418;20.742;2023-07-31T03:51:33;4.70;;;4.30;;
75171;SDS011;63750;52.418;20.742;2023-07-31T03:54:22;4.60;;;4.20;;
75171;SDS011;63750;52.418;20.742;2023-07-31T03:57:11;5.20;;;4.60;;
75171;SDS011;63750;52.418;20.742;2023-07-31T03:59:59;4.90;;;4.40;;
75171;SDS011;63750;52.418;20.742;2023-07-31T04:02:48;4.90;;;4.40;;
75171;SDS011;63750;52.418;20.742;2023-07-31T04:05:38;5.00;;;4.50;;
75171;SDS011;63750;52.418;20.742;2023-07-31T04:08:27;5.10;;;4.60;;
75171;SDS011;63750;52.418;20.742;2023-07-31T04:11:15;4.80;;;4.40;;
75171;SDS011;63750;52.418;20.742;2023-07-31T04:14:04;5.60;;;5.00;;
75171;SDS011;63750;52.418;20.742;2023-07-31T04:16:53;5.40;;;4.90;;
75171;SDS011;63750;52.418;20.742;2023-07-31T04:19:42;4.80;;;4.40;;
75171;SDS011;63750;52.418;20.742;2023-07-31T04:22:31;5.00;;;4.50;;
75171;SDS011;63750;52.418;20.742;2023-07-31T04:25:20;4.90;;;4.40;;
75171;SDS011;63750;52.418;20.742;2023-07-31T04:28:09;4.90;;;4.40;;
75171;SDS011;63750;52.418;20.742;2023-07-31T04:30:58;4.90;;;4.40;;
75171;SDS011;63750;52.418;20.742;2023-07-31T04:33:46;6.10;;;4.90;;
75171;SDS011;63750;52.418;20.742;2023-07-31T04:36:35;5.50;;;4.40;;
75171;SDS011;63750;52.418;20.742;2023-07-31T04:39:24;4.90;;;4.50;;
75171;SDS011;63750;52.418;20.742;2023-07-31T04:42:13;5.00;;;4.50;;
75171;SDS011;63750;52.418;20.742;2023-07-31T04:45:02;4.90;;;4.30;;
75171;SDS011;63750;52.418;20.742;2023-07-31T04:47:52;4.80;;;4.30;;
75171;SDS011;63750;52.418;20.742;2023-07-31T04:50:41;4.70;;;4.30;;
75171;SDS011;63750;52.418;20.742;2023-07-31T04:53:29;4.50;;;4.10;;
75171;SDS011;63750;52.418;20.742;2023-07-31T04:56:18;4.60;;;4.20;;
75171;SDS011;63750;52.418;20.742;2023-07-31T04:59:07;5.80;;;4.20;;
75171;SDS011;63750;52.418;20.742;2023-07-31T05:01:56;4.80;;;4.40;;
75171;SDS011;63750;52.418;20.742;2023-07-31T05:04:45;5.70;;;4.70;;
75171;SDS011;63750;52.418;20.742;2023-07-31T05:07:34;5.10;;;4.00;;
75171;SDS011;63750;52.418;20.742;2023-07-31T05:10:23;6.30;;;4.80;;
75171;SDS011;63750;52.418;20.742;2023-07-31T05:13:11;4.10;;;3.60;;
75171;SDS011;63750;52.418;20.742;2023-07-31T05:16:00;4.30;;;3.90;;
75171;SDS011;63750;52.418;20.742;2023-07-31T05:18:49;4.70;;;4.30;;
75171;SDS011;63750;52.418;20.742;2023-07-31T05:21:38;4.70;;;4.00;;
75171;SDS011;63750;52.418;20.742;2023-07-31T05:24:27;4.60;;;4.20;;
75171;SDS011;63750;52.418;20.742;2023-07-31T05:27:16;6.10;;;4.20;;
75171;SDS011;63750;52.418;20.742;2023-07-31T05:30:05;4.70;;;4.30;;
75171;SDS011;63750;52.418;20.742;2023-07-31T05:32:55;5.20;;;4.20;;
75171;SDS011;63750;52.418;20.742;2023-07-31T05:35:44;5.10;;;4.00;;
75171;SDS011;63750;52.418;20.742;2023-07-31T05:38:33;4.50;;;4.10;;
75171;SDS011;63750;52.418;20.742;2023-07-31T05:41:22;6.20;;;5.00;;
75171;SDS011;63750;52.418;20.742;2023-07-31T05:44:10;4.80;;;4.30;;
75171;SDS011;63750;52.418;20.742;2023-07-31T05:46:59;5.50;;;4.10;;
75171;SDS011;63750;52.418;20.742;2023-07-31T05:49:49;5.20;;;4.70;;
75171;SDS011;63750;52.418;20.742;2023-07-31T05:52:38;4.50;;;4.20;;
75171;SDS011;63750;52.418;20.742;2023-07-31T05:55:27;4.50;;;4.10;;
75171;SDS011;63750;52.418;20.742;2023-07-31T05:58:16;5.10;;;4.00;;
75171;SDS011;63750;52.418;20.742;2023-07-31T06:01:04;5.10;;;4.40;;
75171;SDS011;63750;52.418;20.742;2023-07-31T06:03:53;5.90;;;4.30;;
75171;SDS011;63750;52.418;20.742;2023-07-31T06:06:42;5.80;;;4.00;;
75171;SDS011;63750;52.418;20.742;2023-07-31T06:09:31;5.70;;;4.40;;
75171;SDS011;63750;52.418;20.742;2023-07-31T06:12:20;5.50;;;4.10;;
75171;SDS011;63750;52.418;20.742;2023-07-31T06:15:09;5.00;;;4.40;;
75171;SDS011;63750;52.418;20.742;2023-07-31T06:17:58;4.20;;;3.70;;
75171;SDS011;63750;52.418;20.742;2023-07-31T06:20:47;4.40;;;4.00;;
75171;SDS011;63750;52.418;20.742;2023-07-31T06:23:36;5.30;;;4.50;;
75171;SDS011;63750;52.418;20.742;2023-07-31T06:26:25;4.10;;;3.70;;
75171;SDS011;63750;52.418;20.742;2023-07-31T06:29:14;5.40;;;4.00;;
75171;SDS011;63750;52.418;20.742;2023-07-31T06:32:03;4.10;;;3.80;;
75171;SDS011;63750;52.418;20.742;2023-07-31T06:34:52;5.80;;;4.20;;
75171;SDS011;63750;52.418;20.742;2023-07-31T06:37:41;5.50;;;4.70;;
75171;SDS011;63750;52.418;20.742;2023-07-31T06:40:30;4.40;;;4.00;;
75171;SDS011;63750;52.418;20.742;2023-07-31T06:43:19;5.20;;;4.50;;
75171;SDS011;63750;52.418;20.742;2023-07-31T06:46:08;4.80;;;4.30;;
75171;SDS011;63750;52.418;20.742;2023-07-31T06:48:57;4.50;;;4.10;;
75171;SDS011;63750;52.418;20.742;2023-07-31T06:51:46;5.90;;;4.40;;
75171;SDS011;63750;52.418;20.742;2023-07-31T06:54:34;4.70;;;4.20;;
75171;SDS011;63750;52.418;20.742;2023-07-31T06:57:23;5.10;;;4.60;;
75171;SDS011;63750;52.418;20.742;2023-07-31T07:00:13;5.00;;;4.30;;
75171;SDS011;63750;52.418;20.742;2023-07-31T07:03:02;4.20;;;3.80;;
75171;SDS011;63750;52.418;20.742;2023-07-31T07:05:51;4.50;;;3.50;;
75171;SDS011;63750;52.418;20.742;2023-07-31T07:08:40;4.80;;;3.80;;
75171;SDS011;63750;52.418;20.742;2023-07-31T07:11:29;4.70;;;4.30;;
75171;SDS011;63750;52.418;20.742;2023-07-31T07:14:18;5.60;;;4.20;;
75171;SDS011;63750;52.418;20.742;2023-07-31T07:17:07;4.30;;;3.90;;
75171;SDS011;63750;52.418;20.742;2023-07-31T07:19:55;4.80;;;3.80;;
75171;SDS011;63750;52.418;20.742;2023-07-31T07:22:44;4.40;;;3.50;;
75171;SDS011;63750;52.418;20.742;2023-07-31T07:25:33;5.10;;;4.10;;
75171;SDS011;63750;52.418;20.742;2023-07-31T07:28:24;4.40;;;4.00;;
75171;SDS011;63750;52.418;20.742;2023-07-31T07:31:13;5.20;;;4.10;;
75171;SDS011;63750;52.418;20.742;2023-07-31T07:34:01;4.40;;;3.90;;
75171;SDS011;63750;52.418;20.742;2023-07-31T07:36:50;5.10;;;4.10;;
75171;SDS011;63750;52.418;20.742;2023-07-31T07:39:39;4.00;;;3.60;;
75171;SDS011;63750;52.418;20.742;2023-07-31T07:42:28;5.30;;;4.40;;
75171;SDS011;63750;52.418;20.742;2023-07-31T07:45:17;4.60;;;3.60;;
75171;SDS011;63750;52.418;20.742;2023-07-31T07:48:06;5.00;;;4.20;;
75171;SDS011;63750;52.418;20.742;2023-07-31T07:50:55;5.00;;;4.20;;
75171;SDS011;63750;52.418;20.742;2023-07-31T07:53:43;5.50;;;4.20;;
75171;SDS011;63750;52.418;20.742;2023-07-31T07:56:32;5.10;;;4.30;;
75171;SDS011;63750;52.418;20.742;2023-07-31T07:59:21;4.30;;;3.90;;
75171;SDS011;63750;52.418;20.742;2023-07-31T08:02:10;4.10;;;3.70;;
75171;SDS011;63750;52.418;20.742;2023-07-31T08:05:01;4.00;;;3.70;;
75171;SDS011;63750;52.418;20.742;2023-07-31T08:07:49;4.60;;;4.10;;
75171;SDS011;63750;52.418;20.742;2023-07-31T08:10:38;4.40;;;4.00;;
75171;SDS011;63750;52.418;20.742;2023-07-31T08:13:27;4.20;;;3.80;;
75171;SDS011;63750;52.418;20.742;2023-07-31T08:16:16;4.00;;;3.60;;
75171;SDS011;63750;52.418;20.742;2023-07-31T08:19:05;4.80;;;4.10;;
75171;SDS011;63750;52.418;20.742;2023-07-31T08:21:54;4.20;;;3.80;;
75171;SDS011;63750;52.418;20.742;2023-07-31T08:24:43;4.40;;;3.80;;
75171;SDS011;63750;52.418;20.742;2023-07-31T08:27:32;3.90;;;3.20;;
75171;SDS011;63750;52.418;20.742;2023-07-31T08:30:20;4.30;;;3.60;;
75171;SDS011;63750;52.418;20.742;2023-07-31T08:33:09;3.60;;;3.30;;
75171;SDS011;63750;52.418;20.742;2023-07-31T08:35:58;3.40;;;3.10;;
75171;SDS011;63750;52.418;20.742;2023-07-31T08:38:47;4.70;;;3.80;;
75171;SDS011;63750;52.418;20.742;2023-07-31T08:41:38;3.80;;;3.50;;
75171;SDS011;63750;52.418;20.742;2023-07-31T08:44:27;5.90;;;4.10;;
75171;SDS011;63750;52.418;20.742;2023-07-31T08:47:19;4.30;;;3.90;;
75171;SDS011;63750;52.418;20.742;2023-07-31T08:50:09;4.30;;;3.50;;
75171;SDS011;63750;52.418;20.742;2023-07-31T08:53:00;4.80;;;3.90;;
75171;SDS011;63750;52.418;20.742;2023-07-31T08:55:49;4.40;;;3.60;;
75171;SDS011;63750;52.418;20.742;2023-07-31T08:58:39;3.60;;;3.30;;
75171;SDS011;63750;52.418;20.742;2023-07-31T09:01:29;3.90;;;3.50;;
75171;SDS011;63750;52.418;20.742;2023-07-31T09:04:21;4.40;;;3.40;;
75171;SDS011;63750;52.418;20.742;2023-07-31T09:07:11;4.60;;;3.70;;
75171;SDS011;63750;52.418;20.742;2023-07-31T09:10:02;3.60;;;3.30;;
75171;SDS011;63750;52.418;20.742;2023-07-31T09:12:52;3.00;;;2.80;;
75171;SDS011;63750;52.418;20.742;2023-07-31T09:15:42;3.80;;;2.90;;
75171;SDS011;63750;52.418;20.742;2023-07-31T09:18:32;3.80;;;2.90;;
75171;SDS011;63750;52.418;20.742;2023-07-31T09:21:48;4.00;;;3.20;;
75171;SDS011;63750;52.418;20.742;2023-07-31T09:24:36;3.40;;;2.60;;
75171;SDS011;63750;52.418;20.742;2023-07-31T09:27:25;4.10;;;3.30;;
75171;SDS011;63750;52.418;20.742;2023-07-31T09:30:15;3.80;;;2.90;;
75171;SDS011;63750;52.418;20.742;2023-07-31T09:33:05;4.50;;;3.10;;
75171;SDS011;63750;52.418;20.742;2023-07-31T09:35:57;5.40;;;3.00;;
75171;SDS011;63750;52.418;20.742;2023-07-31T09:38:46;3.50;;;2.80;;
75171;SDS011;63750;52.418;20.742;2023-07-31T09:41:37;2.70;;;2.40;;
75171;SDS011;63750;52.418;20.742;2023-07-31T09:44:39;4.00;;;2.60;;
75171;SDS011;63750;52.418;20.742;2023-07-31T09:47:28;3.30;;;2.80;;
75171;SDS011;63750;52.418;20.742;2023-07-31T09:50:17;4.70;;;2.80;;
75171;SDS011;63750;52.418;20.742;2023-07-31T09:53:07;2.70;;;2.40;;
75171;SDS011;63750;52.418;20.742;2023-07-31T09:55:57;4.00;;;2.70;;
75171;SDS011;63750;52.418;20.742;2023-07-31T09:58:48;2.90;;;2.40;;
75171;SDS011;63750;52.418;20.742;2023-07-31T10:01:37;2.90;;;2.40;;
75171;SDS011;63750;52.418;20.742;2023-07-31T10:04:27;4.30;;;2.80;;
75171;SDS011;63750;52.418;20.742;2023-07-31T10:07:17;3.20;;;2.00;;
75171;SDS011;63750;52.418;20.742;2023-07-31T10:10:08;3.30;;;2.10;;
75171;SDS011;63750;52.418;20.742;2023-07-31T10:12:57;3.70;;;2.10;;
75171;SDS011;63750;52.418;20.742;2023-07-31T10:15:48;2.40;;;2.10;;
75171;SDS011;63750;52.418;20.742;2023-07-31T10:18:37;3.00;;;2.20;;
75171;SDS011;63750;52.418;20.742;2023-07-31T10:21:27;3.10;;;2.30;;
75171;SDS011;63750;52.418;20.742;2023-07-31T10:24:17;4.40;;;2.20;;
75171;SDS011;63750;52.418;20.742;2023-07-31T10:27:07;2.80;;;2.40;;
75171;SDS011;63750;52.418;20.742;2023-07-31T10:29:57;3.70;;;2.20;;
75171;SDS011;63750;52.418;20.742;2023-07-31T10:32:47;7.10;;;2.90;;
75171;SDS011;63750;52.418;20.742;2023-07-31T10:35:38;2.90;;;2.40;;
75171;SDS011;63750;52.418;20.742;2023-07-31T10:38:27;3.50;;;2.30;;
75171;SDS011;63750;52.418;20.742;2023-07-31T10:41:16;3.30;;;2.10;;
75171;SDS011;63750;52.418;20.742;2023-07-31T10:44:05;2.50;;;2.00;;
75171;SDS011;63750;52.418;20.742;2023-07-31T10:46:55;3.90;;;2.00;;
75171;SDS011;63750;52.418;20.742;2023-07-31T10:49:46;2.90;;;2.10;;
75171;SDS011;63750;52.418;20.742;2023-07-31T10:52:35;3.60;;;2.10;;
75171;SDS011;63750;52.418;20.742;2023-07-31T10:55:33;3.00;;;2.30;;
75171;SDS011;63750;52.418;20.742;2023-07-31T10:58:28;2.60;;;2.30;;
75171;SDS011;63750;52.418;20.742;2023-07-31T11:01:17;2.60;;;2.20;;
75171;SDS011;63750;52.418;20.742;2023-07-31T11:04:09;2.80;;;2.30;;
75171;SDS011;63750;52.418;20.742;2023-07-31T11:06:59;2.70;;;2.40;;
75171;SDS011;63750;52.418;20.742;2023-07-31T11:09:49;3.00;;;2.30;;
75171;SDS011;63750;52.418;20.742;2023-07-31T11:12:38;2.50;;;2.00;;
75171;SDS011;63750;52.418;20.742;2023-07-31T11:15:27;3.30;;;2.20;;
75171;SDS011;63750;52.418;20.742;2023-07-31T11:18:16;3.30;;;2.60;;
75171;SDS011;63750;52.418;20.742;2023-07-31T11:21:05;2.70;;;1.90;;
75171;SDS011;63750;52.418;20.742;2023-07-31T11:23:56;3.40;;;2.20;;
75171;SDS011;63750;52.418;20.742;2023-07-31T11:26:49;2.70;;;2.10;;
75171;SDS011;63750;52.418;20.742;2023-07-31T11:29:39;3.30;;;2.30;;
75171;SDS011;63750;52.418;20.742;2023-07-31T11:32:27;2.30;;;2.10;;
75171;SDS011;63750;52.418;20.742;2023-07-31T11:35:17;2.70;;;2.40;;
75171;SDS011;63750;52.418;20.742;2023-07-31T11:38:06;2.70;;;2.10;;
75171;SDS011;63750;52.418;20.742;2023-07-31T11:40:57;3.10;;;2.70;;
75171;SDS011;63750;52.418;20.742;2023-07-31T11:43:47;3.00;;;2.30;;
75171;SDS011;63750;52.418;20.742;2023-07-31T11:46:36;3.30;;;2.20;;
75171;SDS011;63750;52.418;20.742;2023-07-31T11:49:25;3.20;;;2.40;;
75171;SDS011;63750;52.418;20.742;2023-07-31T11:52:15;5.10;;;2.50;;
75171;SDS011;63750;52.418;20.742;2023-07-31T11:55:05;3.20;;;2.50;;
75171;SDS011;63750;52.418;20.742;2023-07-31T11:57:57;2.70;;;2.50;;
75171;SDS011;63750;52.418;20.742;2023-07-31T12:00:46;2.70;;;2.50;;
75171;SDS011;63750;52.418;20.742;2023-07-31T12:03:36;3.50;;;2.40;;
75171;SDS011;63750;52.418;20.742;2023-07-31T12:06:33;3.20;;;2.50;;
75171;SDS011;63750;52.418;20.742;2023-07-31T12:09:22;2.80;;;2.40;;
75171;SDS011;63750;52.418;20.742;2023-07-31T12:12:11;3.40;;;2.50;;
75171;SDS011;63750;52.418;20.742;2023-07-31T12:15:15;3.30;;;2.60;;
75171;SDS011;63750;52.418;20.742;2023-07-31T12:18:07;5.20;;;2.70;;
75171;SDS011;63750;52.418;20.742;2023-07-31T12:20:58;2.50;;;2.30;;
75171;SDS011;63750;52.418;20.742;2023-07-31T12:23:48;3.60;;;2.30;;
75171;SDS011;63750;52.418;20.742;2023-07-31T12:26:38;3.10;;;2.50;;
75171;SDS011;63750;52.418;20.742;2023-07-31T12:29:34;2.80;;;2.60;;
75171;SDS011;63750;52.418;20.742;2023-07-31T12:32:24;2.50;;;2.10;;
75171;SDS011;63750;52.418;20.742;2023-07-31T12:35:13;3.20;;;2.30;;
75171;SDS011;63750;52.418;20.742;2023-07-31T12:38:02;2.70;;;2.50;;
75171;SDS011;63750;52.418;20.742;2023-07-31T12:40:51;2.90;;;2.20;;
75171;SDS011;63750;52.418;20.742;2023-07-31T12:43:40;4.00;;;3.70;;
75171;SDS011;63750;52.418;20.742;2023-07-31T12:46:31;3.30;;;2.70;;
75171;SDS011;63750;52.418;20.742;2023-07-31T12:49:20;4.40;;;2.30;;
75171;SDS011;63750;52.418;20.742;2023-07-31T12:52:09;4.10;;;2.80;;
75171;SDS011;63750;52.418;20.742;2023-07-31T12:54:58;3.40;;;2.40;;
75171;SDS011;63750;52.418;20.742;2023-07-31T12:57:46;3.60;;;2.20;;
75171;SDS011;63750;52.418;20.742;2023-07-31T13:00:35;3.40;;;2.40;;
75171;SDS011;63750;52.418;20.742;2023-07-31T13:03:24;4.30;;;2.80;;
75171;SDS011;63750;52.418;20.742;2023-07-31T13:06:13;2.80;;;2.10;;
75171;SDS011;63750;52.418;20.742;2023-07-31T13:09:02;3.60;;;2.60;;
75171;SDS011;63750;52.418;20.742;2023-07-31T13:11:51;4.10;;;2.50;;
75171;SDS011;63750;52.418;20.742;2023-07-31T13:14:40;3.70;;;2.70;;
75171;SDS011;63750;52.418;20.742;2023-07-31T13:17:29;4.60;;;2.40;;
75171;SDS011;63750;52.418;20.742;2023-07-31T13:20:18;3.30;;;2.60;;
75171;SDS011;63750;52.418;20.742;2023-07-31T13:23:07;3.50;;;2.70;;
75171;SDS011;63750;52.418;20.742;2023-07-31T13:25:56;4.00;;;3.00;;
75171;SDS011;63750;52.418;20.742;2023-07-31T13:28:45;2.80;;;2.30;;
75171;SDS011;63750;52.418;20.742;2023-07-31T13:31:34;3.70;;;2.60;;
75171;SDS011;63750;52.418;20.742;2023-07-31T13:34:22;3.10;;;2.50;;
75171;SDS011;63750;52.418;20.742;2023-07-31T13:37:11;4.90;;;2.80;;
75171;SDS011;63750;52.418;20.742;2023-07-31T13:40:01;3.00;;;2.20;;
75171;SDS011;63750;52.418;20.742;2023-07-31T13:42:50;3.60;;;2.70;;
75171;SDS011;63750;52.418;20.742;2023-07-31T13:45:39;4.40;;;2.30;;
75171;SDS011;63750;52.418;20.742;2023-07-31T13:48:28;3.90;;;2.70;;
75171;SDS011;63750;52.418;20.742;2023-07-31T13:51:16;2.80;;;2.40;;
75171;SDS011;63750;52.418;20.742;2023-07-31T13:54:05;3.90;;;2.80;;
75171;SDS011;63750;52.418;20.742;2023-07-31T13:56:54;4.90;;;2.40;;
75171;SDS011;63750;52.418;20.742;2023-07-31T13:59:43;3.80;;;2.40;;
75171;SDS011;63750;52.418;20.742;2023-07-31T14:02:32;3.60;;;2.60;;
75171;SDS011;63750;52.418;20.742;2023-07-31T14:05:21;3.30;;;2.90;;
75171;SDS011;63750;52.418;20.742;2023-07-31T14:08:10;4.70;;;2.90;;
75171;SDS011;63750;52.418;20.742;2023-07-31T14:10:59;6.50;;;2.80;;
75171;SDS011;63750;52.418;20.742;2023-07-31T14:13:47;3.30;;;3.00;;
75171;SDS011;63750;52.418;20.742;2023-07-31T14:16:37;4.60;;;2.60;;
75171;SDS011;63750;52.418;20.742;2023-07-31T14:19:26;3.70;;;3.10;;
75171;SDS011;63750;52.418;20.742;2023-07-31T14:22:14;4.50;;;2.80;;
75171;SDS011;63750;52.418;20.742;2023-07-31T14:25:14;3.70;;;3.30;;
75171;SDS011;63750;52.418;20.742;2023-07-31T14:28:03;4.90;;;2.90;;
75171;SDS011;63750;52.418;20.742;2023-07-31T14:30:52;3.10;;;2.80;;
75171;SDS011;63750;52.418;20.742;2023-07-31T14:33:41;3.70;;;3.20;;
75171;SDS011;63750;52.418;20.742;2023-07-31T14:36:30;5.10;;;3.30;;
75171;SDS011;63750;52.418;20.742;2023-07-31T14:39:18;4.60;;;3.30;;
75171;SDS011;63750;52.418;20.742;2023-07-31T14:42:07;5.00;;;3.30;;
75171;SDS011;63750;52.418;20.742;2023-07-31T14:44:56;3.40;;;3.00;;
75171;SDS011;63750;52.418;20.742;2023-07-31T14:47:45;3.70;;;3.00;;
75171;SDS011;63750;52.418;20.742;2023-07-31T14:50:34;3.60;;;2.80;;
75171;SDS011;63750;52.418;20.742;2023-07-31T14:53:23;3.20;;;2.90;;
75171;SDS011;63750;52.418;20.742;2023-07-31T14:56:12;4.00;;;3.00;;
75171;SDS011;63750;52.418;20.742;2023-07-31T14:59:01;4.70;;;3.20;;
75171;SDS011;63750;52.418;20.742;2023-07-31T15:01:49;3.90;;;3.00;;
75171;SDS011;63750;52.418;20.742;2023-07-31T15:04:38;3.60;;;3.20;;
75171;SDS011;63750;52.418;20.742;2023-07-31T15:07:27;4.10;;;3.00;;
75171;SDS011;63750;52.418;20.742;2023-07-31T15:10:16;3.60;;;2.90;;
75171;SDS011;63750;52.418;20.742;2023-07-31T15:13:05;3.40;;;2.70;;
75171;SDS011;63750;52.418;20.742;2023-07-31T15:15:54;3.20;;;2.90;;
75171;SDS011;63750;52.418;20.742;2023-07-31T15:18:43;4.10;;;3.70;;
75171;SDS011;63750;52.418;20.742;2023-07-31T15:21:32;5.10;;;2.60;;
75171;SDS011;63750;52.418;20.742;2023-07-31T15:24:21;3.40;;;3.00;;
75171;SDS011;63750;52.418;20.742;2023-07-31T15:27:10;3.30;;;2.90;;
75171;SDS011;63750;52.418;20.742;2023-07-31T15:29:59;3.50;;;3.20;;
75171;SDS011;63750;52.418;20.742;2023-07-31T15:32:47;3.90;;;2.60;;
75171;SDS011;63750;52.418;20.742;2023-07-31T15:35:37;3.00;;;2.70;;
75171;SDS011;63750;52.418;20.742;2023-07-31T15:38:25;3.40;;;2.90;;
75171;SDS011;63750;52.418;20.742;2023-07-31T15:41:14;3.80;;;3.00;;
75171;SDS011;63750;52.418;20.742;2023-07-31T15:44:03;4.00;;;2.90;;
75171;SDS011;63750;52.418;20.742;2023-07-31T15:46:52;4.60;;;3.00;;
75171;SDS011;63750;52.418;20.742;2023-07-31T15:49:41;4.00;;;2.90;;
75171;SDS011;63750;52.418;20.742;2023-07-31T15:52:30;3.70;;;3.20;;
75171;SDS011;63750;52.418;20.742;2023-07-31T15:55:19;5.60;;;3.50;;
75171;SDS011;63750;52.418;20.742;2023-07-31T15:58:08;3.40;;;3.00;;
75171;SDS011;63750;52.418;20.742;2023-07-31T16:00:57;3.10;;;2.80;;
75171;SDS011;63750;52.418;20.742;2023-07-31T16:03:46;4.00;;;3.10;;
75171;SDS011;63750;52.418;20.742;2023-07-31T16:06:35;4.20;;;3.10;;
75171;SDS011;63750;52.418;20.742;2023-07-31T16:09:24;6.00;;;3.40;;
75171;SDS011;63750;52.418;20.742;2023-07-31T16:12:13;3.70;;;3.30;;
75171;SDS011;63750;52.418;20.742;2023-07-31T16:15:02;4.00;;;3.40;;
75171;SDS011;63750;52.418;20.742;2023-07-31T16:17:51;4.20;;;3.40;;
75171;SDS011;63750;52.418;20.742;2023-07-31T16:20:40;3.40;;;3.10;;
75171;SDS011;63750;52.418;20.742;2023-07-31T16:23:29;3.80;;;3.10;;
75171;SDS011;63750;52.418;20.742;2023-07-31T16:26:18;3.40;;;3.10;;
75171;SDS011;63750;52.418;20.742;2023-07-31T16:29:07;4.90;;;3.50;;
75171;SDS011;63750;52.418;20.742;2023-07-31T16:31:55;3.80;;;3.00;;
75171;SDS011;63750;52.418;20.742;2023-07-31T16:34:44;3.30;;;3.00;;
75171;SDS011;63750;52.418;20.742;2023-07-31T16:37:33;3.90;;;3.30;;
75171;SDS011;63750;52.418;20.742;2023-07-31T16:40:22;4.00;;;3.10;;
75171;SDS011;63750;52.418;20.742;2023-07-31T16:43:11;4.90;;;3.70;;
75171;SDS011;63750;52.418;20.742;2023-07-31T16:46:00;3.50;;;3.20;;